sensor_id;sensor_type;location;lat;lon;timestamp;pressure;altitude;pressure_sealevel;temperature;humidity
78488;BME280;67885;49.758;9.582;2023-12-20T00:00:34;99177.56;;;10.43;57.69
78488;BME280;67885;49.758;9.582;2023-12-20T00:03:02;99189.50;;;10.49;57.52
78488;BME280;67885;49.758;9.582;2023-12-20T00:05:30;99175.03;;;10.41;57.85
78488;BME280;67885;49.758;9.582;2023-12-20T00:07:58;99187.81;;;10.48;57.41
78488;BME280;67885;49.758;9.582;2023-12-20T00:10:25;99176.47;;;10.45;57.24
78488;BME280;67885;49.758;9.582;2023-12-20T00:12:51;99176.47;;;10.45;57.67
78488;BME280;67885;49.758;9.582;2023-12-20T00:15:18;99157.13;;;10.34;57.49
78488;BME280;67885;49.758;9.582;2023-12-20T00:17:45;99152.03;;;10.30;57.84
78488;BME280;67885;49.758;9.582;2023-12-20T00:20:12;99176.59;;;10.44;57.75
78488;BME280;67885;49.758;9.582;2023-12-20T00:22:40;99165.06;;;10.45;58.14
78488;BME280;67885;49.758;9.582;2023-12-20T00:25:07;99149.09;;;10.35;57.49
78488;BME280;67885;49.758;9.582;2023-12-20T00:27:34;99131.38;;;10.24;56.97
78488;BME280;67885;49.758;9.582;2023-12-20T00:30:00;99164.94;;;10.46;57.45
78488;BME280;67885;49.758;9.582;2023-12-20T00:32:27;99117.78;;;10.18;56.49
78488;BME280;67885;49.758;9.582;2023-12-20T00:34:53;99155.94;;;10.38;56.67
78488;BME280;67885;49.758;9.582;2023-12-20T00:37:20;99163.16;;;10.36;57.17
78488;BME280;67885;49.758;9.582;2023-12-20T00:39:48;99136.81;;;10.23;57.29
78488;BME280;67885;49.758;9.582;2023-12-20T00:42:14;99151.34;;;10.28;57.46
78488;BME280;67885;49.758;9.582;2023-12-20T00:44:41;99143.63;;;10.25;57.89
78488;BME280;67885;49.758;9.582;2023-12-20T00:47:08;99102.66;;;9.97;57.24
78488;BME280;67885;49.758;9.582;2023-12-20T00:49:34;99121.53;;;10.04;57.78
78488;BME280;67885;49.758;9.582;2023-12-20T00:52:01;99148.34;;;10.22;57.03
78488;BME280;67885;49.758;9.582;2023-12-20T00:54:27;99141.00;;;10.14;58.16
78488;BME280;67885;49.758;9.582;2023-12-20T00:56:57;99137.03;;;10.20;56.82
78488;BME280;67885;49.758;9.582;2023-12-20T00:59:25;99133.06;;;10.14;56.82
78488;BME280;67885;49.758;9.582;2023-12-20T01:01:51;99138.47;;;10.12;56.46
78488;BME280;67885;49.758;9.582;2023-12-20T01:04:18;99131.88;;;10.07;57.01
78488;BME280;67885;49.758;9.582;2023-12-20T01:06:44;99136.56;;;10.03;56.96
78488;BME280;67885;49.758;9.582;2023-12-20T01:09:11;99129.13;;;9.97;56.84
78488;BME280;67885;49.758;9.582;2023-12-20T01:11:37;99099.78;;;9.77;57.23
78488;BME280;67885;49.758;9.582;2023-12-20T01:14:05;99124.31;;;9.91;57.32
78488;BME280;67885;49.758;9.582;2023-12-20T01:16:32;99122.59;;;9.90;57.36
78488;BME280;67885;49.758;9.582;2023-12-20T01:18:58;99121.91;;;9.88;57.32
78488;BME280;67885;49.758;9.582;2023-12-20T01:21:25;99114.94;;;9.87;57.32
78488;BME280;67885;49.758;9.582;2023-12-20T01:23:52;99111.78;;;9.82;57.34
78488;BME280;67885;49.758;9.582;2023-12-20T01:26:18;99104.34;;;9.75;57.26
78488;BME280;67885;49.758;9.582;2023-12-20T01:28:45;99121.78;;;9.78;57.86
78488;BME280;67885;49.758;9.582;2023-12-20T01:31:13;99115.63;;;9.77;57.86
78488;BME280;67885;49.758;9.582;2023-12-20T01:33:39;99111.56;;;9.73;57.40
78488;BME280;67885;49.758;9.582;2023-12-20T01:36:06;99102.31;;;9.68;57.02
78488;BME280;67885;49.758;9.582;2023-12-20T01:38:33;99105.31;;;9.63;58.17
78488;BME280;67885;49.758;9.582;2023-12-20T01:40:59;99110.81;;;9.60;58.43
78488;BME280;67885;49.758;9.582;2023-12-20T01:43:26;99111.69;;;9.60;57.86
78488;BME280;67885;49.758;9.582;2023-12-20T01:45:53;99109.03;;;9.60;58.14
78488;BME280;67885;49.758;9.582;2023-12-20T01:48:24;99097.00;;;9.56;57.82
78488;BME280;67885;49.758;9.582;2023-12-20T01:50:52;99110.00;;;9.59;57.77
78488;BME280;67885;49.758;9.582;2023-12-20T01:53:21;99106.72;;;9.56;57.40
78488;BME280;67885;49.758;9.582;2023-12-20T01:55:52;99085.91;;;9.40;58.07
78488;BME280;67885;49.758;9.582;2023-12-20T01:58:22;99105.03;;;9.43;58.01
78488;BME280;67885;49.758;9.582;2023-12-20T02:00:50;99095.78;;;9.38;58.25
78488;BME280;67885;49.758;9.582;2023-12-20T02:03:18;99106.34;;;9.38;58.25
78488;BME280;67885;49.758;9.582;2023-12-20T02:05:47;99103.47;;;9.30;58.73
78488;BME280;67885;49.758;9.582;2023-12-20T02:08:14;99105.75;;;9.34;58.96
78488;BME280;67885;49.758;9.582;2023-12-20T02:10:40;99116.19;;;9.24;57.73
78488;BME280;67885;49.758;9.582;2023-12-20T02:13:07;99081.19;;;9.09;58.28
78488;BME280;67885;49.758;9.582;2023-12-20T02:15:34;99120.66;;;9.35;58.79
78488;BME280;67885;49.758;9.582;2023-12-20T02:18:02;99116.19;;;9.36;59.04
78488;BME280;67885;49.758;9.582;2023-12-20T02:20:29;99092.41;;;9.24;58.41
78488;BME280;67885;49.758;9.582;2023-12-20T02:22:57;99092.63;;;9.21;58.06
78488;BME280;67885;49.758;9.582;2023-12-20T02:25:23;99108.38;;;9.34;58.83
78488;BME280;67885;49.758;9.582;2023-12-20T02:27:50;99103.22;;;9.33;57.82
78488;BME280;67885;49.758;9.582;2023-12-20T02:30:17;99107.56;;;9.34;57.86
78488;BME280;67885;49.758;9.582;2023-12-20T02:32:43;99104.28;;;9.30;58.16
78488;BME280;67885;49.758;9.582;2023-12-20T02:35:10;99105.84;;;9.21;57.85
78488;BME280;67885;49.758;9.582;2023-12-20T02:37:37;99105.09;;;9.19;59.19
78488;BME280;67885;49.758;9.582;2023-12-20T02:40:06;99112.09;;;9.20;58.38
78488;BME280;67885;49.758;9.582;2023-12-20T02:42:33;99118.44;;;9.18;58.64
78488;BME280;67885;49.758;9.582;2023-12-20T02:44:59;99106.06;;;9.18;58.21
78488;BME280;67885;49.758;9.582;2023-12-20T02:47:26;99044.44;;;8.59;58.75
78488;BME280;67885;49.758;9.582;2023-12-20T02:49:54;99101.50;;;9.09;58.39
78488;BME280;67885;49.758;9.582;2023-12-20T02:52:22;99112.06;;;9.09;58.03
78488;BME280;67885;49.758;9.582;2023-12-20T02:54:49;99110.63;;;9.05;58.54
78488;BME280;67885;49.758;9.582;2023-12-20T02:57:16;99068.97;;;8.84;59.17
78488;BME280;67885;49.758;9.582;2023-12-20T02:59:43;99104.97;;;9.09;58.71
78488;BME280;67885;49.758;9.582;2023-12-20T03:02:10;99142.78;;;9.10;59.08
78488;BME280;67885;49.758;9.582;2023-12-20T03:04:36;99108.34;;;9.11;58.21
78488;BME280;67885;49.758;9.582;2023-12-20T03:07:03;99066.34;;;8.84;58.49
78488;BME280;67885;49.758;9.582;2023-12-20T03:09:29;99107.13;;;9.04;59.03
78488;BME280;67885;49.758;9.582;2023-12-20T03:11:56;99066.81;;;8.78;58.94
78488;BME280;67885;49.758;9.582;2023-12-20T03:14:24;99103.88;;;9.01;58.96
78488;BME280;67885;49.758;9.582;2023-12-20T03:16:50;99107.78;;;8.95;58.25
78488;BME280;67885;49.758;9.582;2023-12-20T03:19:18;99101.69;;;8.94;59.38
78488;BME280;67885;49.758;9.582;2023-12-20T03:21:45;99103.97;;;8.99;59.12
78488;BME280;67885;49.758;9.582;2023-12-20T03:24:11;99087.03;;;8.90;58.71
78488;BME280;67885;49.758;9.582;2023-12-20T03:26:38;99110.13;;;9.00;59.00
78488;BME280;67885;49.758;9.582;2023-12-20T03:29:05;99113.47;;;9.02;59.09
78488;BME280;67885;49.758;9.582;2023-12-20T03:31:32;99092.75;;;8.84;58.69
78488;BME280;67885;49.758;9.582;2023-12-20T03:33:59;99116.22;;;9.00;58.43
78488;BME280;67885;49.758;9.582;2023-12-20T03:36:26;99115.53;;;9.09;59.19
78488;BME280;67885;49.758;9.582;2023-12-20T03:38:52;99108.22;;;9.13;58.81
78488;BME280;67885;49.758;9.582;2023-12-20T03:41:19;99104.59;;;9.14;58.88
78488;BME280;67885;49.758;9.582;2023-12-20T03:43:46;99105.22;;;9.18;58.47
78488;BME280;67885;49.758;9.582;2023-12-20T03:46:12;99106.19;;;9.17;58.13
78488;BME280;67885;49.758;9.582;2023-12-20T03:48:40;99105.22;;;9.18;58.91
78488;BME280;67885;49.758;9.582;2023-12-20T03:51:07;99102.59;;;9.18;58.59
78488;BME280;67885;49.758;9.582;2023-12-20T03:53:33;99095.72;;;9.15;58.34
78488;BME280;67885;49.758;9.582;2023-12-20T03:56:00;99114.47;;;9.23;58.12
78488;BME280;67885;49.758;9.582;2023-12-20T03:58:26;99117.00;;;9.25;58.13
78488;BME280;67885;49.758;9.582;2023-12-20T04:00:53;99117.75;;;9.27;58.39
78488;BME280;67885;49.758;9.582;2023-12-20T04:03:19;99128.44;;;9.25;58.29
78488;BME280;67885;49.758;9.582;2023-12-20T04:05:47;99120.38;;;9.27;58.09
78488;BME280;67885;49.758;9.582;2023-12-20T04:08:14;99118.81;;;9.24;58.79
78488;BME280;67885;49.758;9.582;2023-12-20T04:10:41;99078.41;;;9.00;58.37
78488;BME280;67885;49.758;9.582;2023-12-20T04:13:07;99118.81;;;9.24;58.56
78488;BME280;67885;49.758;9.582;2023-12-20T04:15:34;99105.59;;;9.24;58.35
78488;BME280;67885;49.758;9.582;2023-12-20T04:18:00;99068.19;;;8.95;58.15
78488;BME280;67885;49.758;9.582;2023-12-20T04:20:27;99102.34;;;9.09;58.79
78488;BME280;67885;49.758;9.582;2023-12-20T04:22:55;99111.47;;;9.17;57.94
78488;BME280;67885;49.758;9.582;2023-12-20T04:25:21;99108.44;;;9.10;58.47
78488;BME280;67885;49.758;9.582;2023-12-20T04:27:48;99102.44;;;9.08;59.44
78488;BME280;67885;49.758;9.582;2023-12-20T04:30:15;99114.91;;;9.06;59.24
78488;BME280;67885;49.758;9.582;2023-12-20T04:32:41;99113.00;;;9.08;58.79
78488;BME280;67885;49.758;9.582;2023-12-20T04:35:08;99112.41;;;9.04;59.40
78488;BME280;67885;49.758;9.582;2023-12-20T04:37:34;99121.50;;;9.00;59.19
78488;BME280;67885;49.758;9.582;2023-12-20T04:40:03;99128.72;;;8.98;59.77
78488;BME280;67885;49.758;9.582;2023-12-20T04:42:30;99124.25;;;8.99;60.26
78488;BME280;67885;49.758;9.582;2023-12-20T04:44:57;99131.94;;;9.02;60.34
78488;BME280;67885;49.758;9.582;2023-12-20T04:47:24;99129.94;;;9.05;59.96
78488;BME280;67885;49.758;9.582;2023-12-20T04:49:50;99136.66;;;9.09;60.40
78488;BME280;67885;49.758;9.582;2023-12-20T04:52:17;99150.50;;;9.13;60.23
78488;BME280;67885;49.758;9.582;2023-12-20T04:54:44;99126.34;;;9.06;60.04
78488;BME280;67885;49.758;9.582;2023-12-20T04:57:11;99134.28;;;9.18;59.66
78488;BME280;67885;49.758;9.582;2023-12-20T04:59:38;99149.34;;;9.28;59.53
78488;BME280;67885;49.758;9.582;2023-12-20T05:02:05;99153.31;;;9.34;60.20
78488;BME280;67885;49.758;9.582;2023-12-20T05:04:31;99147.56;;;9.40;59.10
78488;BME280;67885;49.758;9.582;2023-12-20T05:06:58;99143.84;;;9.43;60.11
78488;BME280;67885;49.758;9.582;2023-12-20T05:09:24;99160.09;;;9.50;59.78
78488;BME280;67885;49.758;9.582;2023-12-20T05:11:51;99160.81;;;9.52;59.83
78488;BME280;67885;49.758;9.582;2023-12-20T05:14:19;99164.06;;;9.55;58.83
78488;BME280;67885;49.758;9.582;2023-12-20T05:16:45;99160.94;;;9.61;59.67
78488;BME280;67885;49.758;9.582;2023-12-20T05:19:12;99156.84;;;9.57;59.04
78488;BME280;67885;49.758;9.582;2023-12-20T05:21:39;99166.13;;;9.63;60.47
78488;BME280;67885;49.758;9.582;2023-12-20T05:24:06;99167.47;;;9.80;58.83
78488;BME280;67885;49.758;9.582;2023-12-20T05:26:33;99177.78;;;9.83;58.52
78488;BME280;67885;49.758;9.582;2023-12-20T05:28:59;99183.94;;;9.84;59.28
78488;BME280;67885;49.758;9.582;2023-12-20T05:31:27;99182.25;;;9.83;58.90
78488;BME280;67885;49.758;9.582;2023-12-20T05:33:54;99177.66;;;9.85;59.53
78488;BME280;67885;49.758;9.582;2023-12-20T05:36:20;99188.03;;;9.88;59.01
78488;BME280;67885;49.758;9.582;2023-12-20T05:38:47;99172.50;;;9.83;59.13
78488;BME280;67885;49.758;9.582;2023-12-20T05:41:14;99166.63;;;9.79;58.84
78488;BME280;67885;49.758;9.582;2023-12-20T05:43:40;99188.53;;;9.93;59.04
78488;BME280;67885;49.758;9.582;2023-12-20T05:46:07;99169.50;;;9.88;59.00
78488;BME280;67885;49.758;9.582;2023-12-20T05:48:35;99193.44;;;10.09;58.29
78488;BME280;67885;49.758;9.582;2023-12-20T05:51:01;99192.84;;;10.17;57.69
78488;BME280;67885;49.758;9.582;2023-12-20T05:53:28;99203.19;;;10.20;58.30
78488;BME280;67885;49.758;9.582;2023-12-20T05:55:55;99200.53;;;10.20;58.41
78488;BME280;67885;49.758;9.582;2023-12-20T05:58:21;99180.34;;;10.19;58.76
78488;BME280;67885;49.758;9.582;2023-12-20T06:00:48;99204.28;;;10.28;57.79
78488;BME280;67885;49.758;9.582;2023-12-20T06:03:15;99174.94;;;10.20;61.46
78488;BME280;67885;49.758;9.582;2023-12-20T06:05:43;99206.06;;;10.62;56.20
78488;BME280;67885;49.758;9.582;2023-12-20T06:08:10;99209.44;;;10.64;56.90
78488;BME280;67885;49.758;9.582;2023-12-20T06:10:37;99221.00;;;10.63;56.07
78488;BME280;67885;49.758;9.582;2023-12-20T06:13:04;99219.56;;;10.59;57.03
78488;BME280;67885;49.758;9.582;2023-12-20T06:15:32;99222.81;;;10.51;57.22
78488;BME280;67885;49.758;9.582;2023-12-20T06:17:58;99224.13;;;10.45;58.18
78488;BME280;67885;49.758;9.582;2023-12-20T06:20:25;99224.66;;;10.39;57.51
78488;BME280;67885;49.758;9.582;2023-12-20T06:22:53;99166.88;;;9.88;57.85
78488;BME280;67885;49.758;9.582;2023-12-20T06:25:19;99220.75;;;10.21;57.95
78488;BME280;67885;49.758;9.582;2023-12-20T06:27:46;99232.41;;;10.18;58.86
78488;BME280;67885;49.758;9.582;2023-12-20T06:30:12;99228.56;;;10.11;58.27
78488;BME280;67885;49.758;9.582;2023-12-20T06:32:39;99234.00;;;10.09;59.21
78488;BME280;67885;49.758;9.582;2023-12-20T06:35:08;99251.06;;;10.05;58.69
78488;BME280;67885;49.758;9.582;2023-12-20T06:37:35;99254.06;;;10.01;58.28
78488;BME280;67885;49.758;9.582;2023-12-20T06:40:04;99241.06;;;9.86;57.90
78488;BME280;67885;49.758;9.582;2023-12-20T06:42:31;99256.19;;;9.84;56.70
78488;BME280;67885;49.758;9.582;2023-12-20T06:44:58;99262.41;;;9.72;57.71
78488;BME280;67885;49.758;9.582;2023-12-20T06:47:24;99266.13;;;9.69;57.69
78488;BME280;67885;49.758;9.582;2023-12-20T06:49:51;99269.97;;;9.65;56.88
78488;BME280;67885;49.758;9.582;2023-12-20T06:52:18;99235.88;;;9.38;56.89
78488;BME280;67885;49.758;9.582;2023-12-20T06:54:45;99285.22;;;9.61;57.30
78488;BME280;67885;49.758;9.582;2023-12-20T06:57:12;99290.16;;;9.66;57.00
78488;BME280;67885;49.758;9.582;2023-12-20T06:59:40;99174.09;;;9.03;56.11
78488;BME280;67885;49.758;9.582;2023-12-20T07:02:08;99290.28;;;9.65;55.97
78488;BME280;67885;49.758;9.582;2023-12-20T07:04:39;99293.13;;;9.61;56.92
78488;BME280;67885;49.758;9.582;2023-12-20T07:07:05;99287.75;;;9.63;57.03
78488;BME280;67885;49.758;9.582;2023-12-20T07:09:32;99290.16;;;9.66;56.79
78488;BME280;67885;49.758;9.582;2023-12-20T07:11:59;99266.59;;;9.63;55.26
78488;BME280;67885;49.758;9.582;2023-12-20T07:14:27;99285.16;;;9.74;55.23
78488;BME280;67885;49.758;9.582;2023-12-20T07:16:54;99269.72;;;9.68;54.52
78488;BME280;67885;49.758;9.582;2023-12-20T07:19:21;99286.78;;;9.64;54.64
78488;BME280;67885;49.758;9.582;2023-12-20T07:21:47;99295.22;;;9.69;55.08
78488;BME280;67885;49.758;9.582;2023-12-20T07:24:14;99266.56;;;9.52;54.94
78488;BME280;67885;49.758;9.582;2023-12-20T07:26:41;99272.78;;;9.51;54.59
78488;BME280;67885;49.758;9.582;2023-12-20T07:29:08;99274.81;;;9.71;53.53
78488;BME280;67885;49.758;9.582;2023-12-20T07:31:36;99289.38;;;9.88;53.75
78488;BME280;67885;49.758;9.582;2023-12-20T07:34:03;99189.81;;;9.29;53.80
78488;BME280;67885;49.758;9.582;2023-12-20T07:36:30;99297.00;;;9.93;52.75
78488;BME280;67885;49.758;9.582;2023-12-20T07:38:57;99292.97;;;9.87;53.15
78488;BME280;67885;49.758;9.582;2023-12-20T07:41:24;99308.16;;;9.96;53.13
78488;BME280;67885;49.758;9.582;2023-12-20T07:43:50;99309.97;;;9.96;53.35
78488;BME280;67885;49.758;9.582;2023-12-20T07:46:20;99313.84;;;10.03;54.08
78488;BME280;67885;49.758;9.582;2023-12-20T07:48:49;99304.75;;;10.19;51.87
78488;BME280;67885;49.758;9.582;2023-12-20T07:51:16;99302.09;;;10.19;52.11
78488;BME280;67885;49.758;9.582;2023-12-20T07:53:42;99274.00;;;9.93;52.30
78488;BME280;67885;49.758;9.582;2023-12-20T07:56:15;99264.50;;;9.91;52.73
78488;BME280;67885;49.758;9.582;2023-12-20T07:58:42;99329.28;;;10.21;52.21
78488;BME280;67885;49.758;9.582;2023-12-20T08:01:10;99308.47;;;10.16;52.64
78488;BME280;67885;49.758;9.582;2023-12-20T08:03:36;99318.09;;;10.28;52.67
78488;BME280;67885;49.758;9.582;2023-12-20T08:06:04;99315.09;;;10.33;52.28
78488;BME280;67885;49.758;9.582;2023-12-20T08:08:31;99305.94;;;10.26;52.73
78488;BME280;67885;49.758;9.582;2023-12-20T08:11:01;99319.94;;;10.39;51.80
78488;BME280;67885;49.758;9.582;2023-12-20T08:13:28;99217.84;;;9.78;52.18
78488;BME280;67885;49.758;9.582;2023-12-20T08:15:55;99315.25;;;10.43;51.63
78488;BME280;67885;49.758;9.582;2023-12-20T08:18:22;99292.94;;;10.34;51.40
78488;BME280;67885;49.758;9.582;2023-12-20T08:20:49;99258.88;;;10.18;51.01
78488;BME280;67885;49.758;9.582;2023-12-20T08:23:19;99285.00;;;10.34;51.70
78488;BME280;67885;49.758;9.582;2023-12-20T08:25:47;99279.63;;;10.36;51.55
78488;BME280;67885;49.758;9.582;2023-12-20T08:28:14;99300.34;;;10.42;51.15
78488;BME280;67885;49.758;9.582;2023-12-20T08:30:41;99297.78;;;10.40;50.96
78488;BME280;67885;49.758;9.582;2023-12-20T08:33:08;99301.28;;;10.41;51.59
78488;BME280;67885;49.758;9.582;2023-12-20T08:35:38;99303.44;;;10.47;51.54
78488;BME280;67885;49.758;9.582;2023-12-20T08:38:05;99292.63;;;10.39;51.83
78488;BME280;67885;49.758;9.582;2023-12-20T08:40:33;99332.19;;;10.40;52.31
78488;BME280;67885;49.758;9.582;2023-12-20T08:43:01;99287.78;;;10.33;51.84
78488;BME280;67885;49.758;9.582;2023-12-20T08:45:28;99356.84;;;10.29;51.75
78488;BME280;67885;49.758;9.582;2023-12-20T08:47:54;99322.66;;;10.26;52.47
78488;BME280;67885;49.758;9.582;2023-12-20T08:50:21;99324.09;;;10.19;51.51
78488;BME280;67885;49.758;9.582;2023-12-20T08:52:48;99319.25;;;10.13;51.66
78488;BME280;67885;49.758;9.582;2023-12-20T08:55:15;99304.19;;;10.02;51.85
78488;BME280;67885;49.758;9.582;2023-12-20T08:57:45;99318.88;;;10.06;52.66
78488;BME280;67885;49.758;9.582;2023-12-20T09:00:13;99343.47;;;9.84;51.51
78488;BME280;67885;49.758;9.582;2023-12-20T09:02:40;99309.84;;;9.86;53.42
78488;BME280;67885;49.758;9.582;2023-12-20T09:05:07;99330.66;;;10.02;52.70
78488;BME280;67885;49.758;9.582;2023-12-20T09:07:34;99322.03;;;10.11;52.74
78488;BME280;67885;49.758;9.582;2023-12-20T09:10:01;99322.78;;;10.25;52.80
78488;BME280;67885;49.758;9.582;2023-12-20T09:12:29;99321.03;;;10.37;52.70
78488;BME280;67885;49.758;9.582;2023-12-20T09:14:57;99316.59;;;10.49;51.96
78488;BME280;67885;49.758;9.582;2023-12-20T09:17:24;99346.78;;;10.46;51.26
78488;BME280;67885;49.758;9.582;2023-12-20T09:19:50;99293.22;;;10.42;51.67
78488;BME280;67885;49.758;9.582;2023-12-20T09:22:19;99334.50;;;10.56;51.68
78488;BME280;67885;49.758;9.582;2023-12-20T09:24:46;99340.19;;;10.52;50.86
78488;BME280;67885;49.758;9.582;2023-12-20T09:27:13;99327.16;;;10.37;51.01
78488;BME280;67885;49.758;9.582;2023-12-20T09:29:39;99333.41;;;10.36;52.01
78488;BME280;67885;49.758;9.582;2023-12-20T09:32:08;99332.66;;;10.34;51.58
78488;BME280;67885;49.758;9.582;2023-12-20T09:34:35;99304.13;;;10.15;52.08
78488;BME280;67885;49.758;9.582;2023-12-20T09:37:03;99291.47;;;9.96;51.12
78488;BME280;67885;49.758;9.582;2023-12-20T09:39:31;99310.56;;;10.00;51.70
78488;BME280;67885;49.758;9.582;2023-12-20T09:42:01;99339.03;;;10.20;52.63
78488;BME280;67885;49.758;9.582;2023-12-20T09:44:28;99342.50;;;10.21;51.53
78488;BME280;67885;49.758;9.582;2023-12-20T09:46:56;99365.56;;;10.07;52.46
78488;BME280;67885;49.758;9.582;2023-12-20T09:49:27;99223.59;;;9.37;51.43
78488;BME280;67885;49.758;9.582;2023-12-20T09:51:54;99332.03;;;10.08;52.60
78488;BME280;67885;49.758;9.582;2023-12-20T09:54:35;99329.72;;;10.03;52.98
78488;BME280;67885;49.758;9.582;2023-12-20T09:57:02;99299.00;;;9.89;52.34
78488;BME280;67885;49.758;9.582;2023-12-20T09:59:29;99336.72;;;10.16;52.77
78488;BME280;67885;49.758;9.582;2023-12-20T10:01:57;99330.09;;;10.10;52.06
78488;BME280;67885;49.758;9.582;2023-12-20T10:04:25;99334.06;;;10.16;51.78
78488;BME280;67885;49.758;9.582;2023-12-20T10:06:52;99335.13;;;10.13;52.73
78488;BME280;67885;49.758;9.582;2023-12-20T10:09:19;99291.69;;;9.93;52.93
78488;BME280;67885;49.758;9.582;2023-12-20T10:11:59;99313.13;;;10.01;52.77
78488;BME280;67885;49.758;9.582;2023-12-20T10:14:27;99309.28;;;10.05;53.67
78488;BME280;67885;49.758;9.582;2023-12-20T10:16:53;99332.75;;;10.21;53.11
78488;BME280;67885;49.758;9.582;2023-12-20T10:19:21;99311.31;;;10.13;52.55
78488;BME280;67885;49.758;9.582;2023-12-20T10:21:49;99317.47;;;10.13;51.96
78488;BME280;67885;49.758;9.582;2023-12-20T10:24:17;99297.94;;;10.03;52.95
78488;BME280;67885;49.758;9.582;2023-12-20T10:26:44;99307.22;;;10.09;52.94
78488;BME280;67885;49.758;9.582;2023-12-20T10:29:12;99314.81;;;10.13;52.52
78488;BME280;67885;49.758;9.582;2023-12-20T10:31:40;99307.34;;;10.07;52.16
78488;BME280;67885;49.758;9.582;2023-12-20T10:34:07;99297.25;;;10.01;52.99
78488;BME280;67885;49.758;9.582;2023-12-20T10:36:34;99306.38;;;10.08;52.15
78488;BME280;67885;49.758;9.582;2023-12-20T10:41:38;99296.75;;;10.07;53.07
78488;BME280;67885;49.758;9.582;2023-12-20T10:44:09;99305.31;;;10.11;53.32
78488;BME280;67885;49.758;9.582;2023-12-20T10:47:02;99291.50;;;10.19;53.90
78488;BME280;67885;49.758;9.582;2023-12-20T10:49:52;99286.22;;;10.19;52.80
78488;BME280;67885;49.758;9.582;2023-12-20T10:52:23;99292.59;;;10.27;53.28
78488;BME280;67885;49.758;9.582;2023-12-20T10:54:50;99288.84;;;10.30;52.65
78488;BME280;67885;49.758;9.582;2023-12-20T10:57:19;99268.63;;;10.18;51.84
78488;BME280;67885;49.758;9.582;2023-12-20T10:59:51;99285.59;;;10.26;52.46
78488;BME280;67885;49.758;9.582;2023-12-20T11:02:21;99291.97;;;10.24;52.21
78488;BME280;67885;49.758;9.582;2023-12-20T11:04:55;99278.38;;;10.17;53.05
78488;BME280;67885;49.758;9.582;2023-12-20T11:07:29;99271.41;;;10.16;51.77
78488;BME280;67885;49.758;9.582;2023-12-20T11:10:08;99289.31;;;10.12;52.10
78488;BME280;67885;49.758;9.582;2023-12-20T11:12:46;99272.00;;;10.08;51.80
78488;BME280;67885;49.758;9.582;2023-12-20T11:15:16;99282.81;;;10.17;51.85
78488;BME280;67885;49.758;9.582;2023-12-20T11:17:44;99304.81;;;10.06;52.28
78488;BME280;67885;49.758;9.582;2023-12-20T11:20:12;99286.03;;;9.98;51.99
78488;BME280;67885;49.758;9.582;2023-12-20T11:22:52;99273.19;;;9.93;52.74
78488;BME280;67885;49.758;9.582;2023-12-20T11:25:26;99304.31;;;9.89;52.86
78488;BME280;67885;49.758;9.582;2023-12-20T11:28:15;99263.44;;;9.93;52.60
78488;BME280;67885;49.758;9.582;2023-12-20T11:30:50;99262.59;;;9.93;51.63
78488;BME280;67885;49.758;9.582;2023-12-20T11:33:21;99248.38;;;9.83;52.11
78488;BME280;67885;49.758;9.582;2023-12-20T11:35:49;99265.72;;;9.98;52.47
78488;BME280;67885;49.758;9.582;2023-12-20T11:38:19;99222.25;;;9.67;51.97
78488;BME280;67885;49.758;9.582;2023-12-20T11:41:05;99216.25;;;9.87;51.68
78488;BME280;67885;49.758;9.582;2023-12-20T11:43:48;99245.91;;;10.15;51.05
78488;BME280;67885;49.758;9.582;2023-12-20T11:46:48;99246.38;;;10.20;51.89
78488;BME280;67885;49.758;9.582;2023-12-20T11:49:16;99240.59;;;10.15;50.36
78488;BME280;67885;49.758;9.582;2023-12-20T11:51:44;99242.88;;;10.08;50.26
78488;BME280;67885;49.758;9.582;2023-12-20T11:54:25;99265.38;;;10.14;50.66
78488;BME280;67885;49.758;9.582;2023-12-20T11:56:53;99237.47;;;9.99;51.14
78488;BME280;67885;49.758;9.582;2023-12-20T11:59:22;99258.41;;;10.13;50.75
78488;BME280;67885;49.758;9.582;2023-12-20T12:01:49;99251.19;;;10.15;51.85
78488;BME280;67885;49.758;9.582;2023-12-20T12:04:18;99241.22;;;10.19;51.26
78488;BME280;67885;49.758;9.582;2023-12-20T12:06:46;99246.50;;;10.19;50.59
78488;BME280;67885;49.758;9.582;2023-12-20T12:09:16;99240.94;;;10.10;50.65
78488;BME280;67885;49.758;9.582;2023-12-20T12:12:13;99192.59;;;9.86;49.59
78488;BME280;67885;49.758;9.582;2023-12-20T12:14:56;99210.03;;;10.00;49.02
78488;BME280;67885;49.758;9.582;2023-12-20T12:17:23;99260.91;;;10.03;49.98
78488;BME280;67885;49.758;9.582;2023-12-20T12:19:51;99237.72;;;10.07;49.80
78488;BME280;67885;49.758;9.582;2023-12-20T12:22:30;99236.50;;;10.11;50.86
78488;BME280;67885;49.758;9.582;2023-12-20T12:25:05;99224.38;;;10.08;50.99
78488;BME280;67885;49.758;9.582;2023-12-20T12:27:43;99185.88;;;9.93;50.61
78488;BME280;67885;49.758;9.582;2023-12-20T12:30:12;99233.16;;;10.20;51.54
78488;BME280;67885;49.758;9.582;2023-12-20T12:32:51;99136.44;;;9.71;51.27
78488;BME280;67885;49.758;9.582;2023-12-20T12:35:38;99232.66;;;10.26;51.12
78488;BME280;67885;49.758;9.582;2023-12-20T12:40:49;98787.38;;;7.68;50.30
78488;BME280;67885;49.758;9.582;2023-12-20T12:43:28;98718.88;;;7.33;50.31
78488;BME280;67885;49.758;9.582;2023-12-20T12:46:24;99128.13;;;9.64;50.62
78488;BME280;67885;49.758;9.582;2023-12-20T12:52:46;98808.50;;;6.70;50.73
78488;BME280;67885;49.758;9.582;2023-12-20T12:55:27;98817.56;;;6.79;49.82
78488;BME280;67885;49.758;9.582;2023-12-20T12:57:55;99047.16;;;8.93;50.50
78488;BME280;67885;49.758;9.582;2023-12-20T13:00:24;98792.00;;;6.68;50.59
78488;BME280;67885;49.758;9.582;2023-12-20T13:02:54;98942.72;;;7.58;50.38
78488;BME280;67885;49.758;9.582;2023-12-20T13:05:22;98767.69;;;6.77;50.23
78488;BME280;67885;49.758;9.582;2023-12-20T13:07:50;99122.94;;;8.93;49.97
78488;BME280;67885;49.758;9.582;2023-12-20T13:10:17;98727.31;;;6.52;49.71
78488;BME280;67885;49.758;9.582;2023-12-20T13:13:12;98979.69;;;8.42;50.01
78488;BME280;67885;49.758;9.582;2023-12-20T13:16:12;98796.28;;;6.19;50.85
78488;BME280;67885;49.758;9.582;2023-12-20T13:19:26;98877.16;;;6.41;50.48
78488;BME280;67885;49.758;9.582;2023-12-20T13:25:54;99129.06;;;8.32;51.60
78488;BME280;67885;49.758;9.582;2023-12-20T13:32:15;98932.88;;;8.33;51.92